North Menomonie, Wisconsin
Current Conditions -  °F | °C
As of 11:55 PM on Saturday 22 Nov 2014 (Local Time) from KLUM Reporting Station
Moderate Fog Moderate Fog  
Wind Chill: 36°   Ceiling: 200
Heat Index: 36°   Visibility: 0mi
Dew Point: 36°   Wind: 0mph
Humidity: 99%   Direction: NA
Pressure: 29.58"   Gusts: NA
Location:  44.857°N, 92.0071°W
Report Text: KLUM 230555Z AUTO 00000KT M1/4SM FG OVC002 02/02 A2958 RMK AO2 T00220021 10023 20017 400270000
Loading
Personal Weather Stations






























Interactive Weather Map New forecast layout! Learn more

10-Day Weather Forecast

Advertisements
Track Severe Weather on mobile